Time;durP1;ratioP1;P1;durP2;ratioP2;P2;SDS_P1;SDS_P2;PMS_P1;PMS_P2;Temp;Humidity;BMP_temperature;BMP_pressure;BME280_temperature;BME280_humidity;BME280_pressure;Samples;Min_cycle;Max_cycle;Signal;HPM_P1;HPM_P2
2023/11/22 00:01:08;;;;;;;0.90;0.87;;;5.10;99.90;;;;;;5076670;28;20178;-95
2023/11/22 00:03:34;;;;;;;1.27;1.17;;;5.00;99.90;;;;;;5076371;28;20213;-94
2023/11/22 00:06:01;;;;;;;1.77;1.63;;;4.90;99.90;;;;;;5076358;28;20223;-91
2023/11/22 00:08:27;;;;;;;0.90;0.90;;;4.90;99.90;;;;;;5073699;28;20251;-92
2023/11/22 00:10:53;;;;;;;1.33;1.23;;;5.00;99.90;;;;;;5073729;28;20296;-92
2023/11/22 00:13:18;;;;;;;0.93;0.77;;;4.90;99.90;;;;;;5073114;28;20266;-94
2023/11/22 00:15:44;;;;;;;1.30;1.30;;;5.00;99.90;;;;;;5072738;28;20239;-93
2023/11/22 00:18:13;;;;;;;0.77;0.67;;;4.90;99.90;;;;;;5072692;28;20233;-95
2023/11/22 00:20:39;;;;;;;0.77;0.77;;;5.00;99.90;;;;;;5055178;28;20251;-92
2023/11/22 00:23:05;;;;;;;1.13;1.13;;;4.90;99.90;;;;;;5072233;28;20213;-92
2023/11/22 00:25:32;;;;;;;2.53;1.20;;;5.00;99.90;;;;;;5073048;28;20177;-92
2023/11/22 00:27:58;;;;;;;1.60;0.83;;;5.00;99.90;;;;;;5073026;28;20181;-93
2023/11/22 00:30:24;;;;;;;4.90;1.93;;;4.90;99.90;;;;;;5073491;28;20574;-92
2023/11/22 00:32:51;;;;;;;0.60;0.60;;;4.90;99.90;;;;;;5072227;28;20274;-93
2023/11/22 00:35:17;;;;;;;0.43;0.43;;;4.90;99.90;;;;;;5072128;28;20271;-94
2023/11/22 00:37:42;;;;;;;0.80;0.80;;;4.90;99.90;;;;;;5072631;28;20205;-94
2023/11/22 00:40:11;;;;;;;1.97;1.80;;;4.90;99.90;;;;;;5072929;28;20204;-93
2023/11/22 00:42:39;;;;;;;4.93;2.40;;;4.70;99.90;;;;;;5056564;28;20224;-94
2023/11/22 00:45:06;;;;;;;1.53;1.43;;;4.70;99.90;;;;;;5072620;28;20212;-93
2023/11/22 00:47:33;;;;;;;0.80;0.80;;;4.70;99.90;;;;;;5062331;28;20217;-91
2023/11/22 00:49:59;;;;;;;3.13;2.03;;;4.90;99.90;;;;;;5077846;28;20209;-88
2023/11/22 00:52:24;;;;;;;0.80;0.80;;;4.90;99.90;;;;;;5058588;28;20273;-92
2023/11/22 00:54:50;;;;;;;1.13;1.13;;;4.90;99.90;;;;;;5055956;28;20208;-92
2023/11/22 00:57:16;;;;;;;0.90;0.90;;;4.80;99.90;;;;;;5072235;28;20233;-94
2023/11/22 00:59:43;;;;;;;1.67;1.53;;;4.90;99.90;;;;;;5072829;28;20302;-91
2023/11/22 01:02:09;;;;;;;2.53;1.33;;;4.90;99.90;;;;;;5072822;28;20355;-90
2023/11/22 01:04:36;;;;;;;1.33;1.23;;;5.00;99.90;;;;;;5073685;28;20205;-92
2023/11/22 01:07:04;;;;;;;0.87;0.87;;;4.90;99.90;;;;;;5076533;28;20181;-92
2023/11/22 01:09:31;;;;;;;2.90;2.10;;;5.00;99.90;;;;;;5075717;28;20229;-89
2023/11/22 01:11:58;;;;;;;1.07;1.07;;;5.00;99.90;;;;;;5074106;28;20300;-91
2023/11/22 01:14:24;;;;;;;1.00;0.93;;;5.10;99.90;;;;;;5071894;28;20224;-92
2023/11/22 01:16:50;;;;;;;2.10;1.50;;;5.20;99.90;;;;;;5055259;28;20221;-93
2023/11/22 01:19:16;;;;;;;0.90;0.90;;;5.10;99.90;;;;;;5072720;28;20277;-92
2023/11/22 01:21:41;;;;;;;1.30;1.27;;;5.00;99.90;;;;;;5071789;28;20213;-92
2023/11/22 01:24:08;;;;;;;1.23;1.07;;;5.20;99.90;;;;;;5072120;28;20241;-88
2023/11/22 01:26:33;;;;;;;1.87;1.77;;;5.30;99.90;;;;;;5071614;28;20217;-93
2023/11/22 01:28:59;;;;;;;1.80;1.70;;;5.10;99.90;;;;;;5072158;28;20270;-91
2023/11/22 01:31:27;;;;;;;0.73;0.73;;;5.30;99.90;;;;;;5072274;28;20609;-87
2023/11/22 01:33:53;;;;;;;0.83;0.67;;;5.10;99.90;;;;;;5076192;28;20180;-91
2023/11/22 01:36:19;;;;;;;1.37;1.33;;;5.20;99.90;;;;;;5058629;28;20585;-94
2023/11/22 01:38:46;;;;;;;2.63;1.67;;;5.20;99.90;;;;;;5075093;28;20217;-91
2023/11/22 01:41:13;;;;;;;1.60;1.50;;;5.30;99.90;;;;;;5075569;28;20300;-93
2023/11/22 01:43:42;;;;;;;1.37;1.27;;;5.30;99.90;;;;;;5075092;28;20228;-91
2023/11/22 01:46:10;;;;;;;0.93;0.83;;;5.50;99.90;;;;;;5075717;28;20249;-90
2023/11/22 01:48:39;;;;;;;3.00;2.00;;;5.40;99.90;;;;;;5076301;28;20583;-93
2023/11/22 01:51:05;;;;;;;1.27;1.27;;;5.40;99.90;;;;;;5059215;28;20253;-90
2023/11/22 01:53:32;;;;;;;2.60;2.40;;;5.60;99.90;;;;;;5075042;28;20565;-93
2023/11/22 01:55:58;;;;;;;1.10;1.10;;;5.50;99.90;;;;;;5074767;28;20299;-94
2023/11/22 01:58:24;;;;;;;1.30;1.20;;;5.60;99.90;;;;;;5077261;28;20308;-91
2023/11/22 02:00:52;;;;;;;1.37;1.30;;;5.50;99.90;;;;;;5074693;28;20728;-94
2023/11/22 02:03:18;;;;;;;1.43;1.33;;;5.60;99.90;;;;;;5074935;28;20259;-92
2023/11/22 02:05:47;;;;;;;1.43;1.33;;;5.50;99.90;;;;;;5075576;28;20218;-89
2023/11/22 02:08:13;;;;;;;1.23;1.23;;;5.50;99.90;;;;;;5058228;28;20568;-91
2023/11/22 02:10:40;;;;;;;1.20;1.20;;;5.50;99.90;;;;;;5074682;28;20173;-93
2023/11/22 02:13:07;;;;;;;1.40;1.40;;;5.50;99.90;;;;;;5075040;28;20169;-94
2023/11/22 02:15:37;;;;;;;4.27;2.27;;;5.40;99.90;;;;;;5058121;28;20213;-91
2023/11/22 02:18:03;;;;;;;0.77;0.77;;;5.40;99.90;;;;;;5075548;28;20229;-92
2023/11/22 02:20:30;;;;;;;6.80;2.57;;;5.60;99.90;;;;;;5057512;28;20228;-91
2023/11/22 02:22:56;;;;;;;1.30;1.20;;;5.60;99.90;;;;;;5057671;28;20292;-91
2023/11/22 02:25:22;;;;;;;1.37;1.27;;;5.60;99.90;;;;;;5074726;28;20231;-91
2023/11/22 02:27:48;;;;;;;7.40;1.93;;;5.50;99.90;;;;;;5074577;28;20229;-90
2023/11/22 02:30:15;;;;;;;3.03;1.43;;;5.60;99.90;;;;;;5075352;28;20230;-91
2023/11/22 02:32:41;;;;;;;0.37;0.37;;;5.50;99.90;;;;;;5073923;28;20220;-88
2023/11/22 02:35:07;;;;;;;1.33;1.27;;;5.60;99.90;;;;;;5057489;28;20209;-93
2023/11/22 02:37:35;;;;;;;1.60;1.50;;;5.60;99.90;;;;;;5074335;28;20213;-90
2023/11/22 02:40:19;;;;;;;2.93;1.83;;;5.40;99.90;;;;;;5074711;28;20174;-92
2023/11/22 02:42:49;;;;;;;1.93;1.80;;;5.60;99.90;;;;;;5073844;28;20232;-89
2023/11/22 02:45:24;;;;;;;1.33;1.23;;;5.50;99.90;;;;;;5074773;28;20217;-92
2023/11/22 02:47:50;;;;;;;0.60;0.60;;;5.50;99.90;;;;;;5074954;28;20221;-91
2023/11/22 02:50:16;;;;;;;2.50;1.80;;;5.40;99.90;;;;;;5074015;28;20216;-91
2023/11/22 02:52:42;;;;;;;3.27;3.00;;;5.50;99.90;;;;;;5074366;28;20182;-92
2023/11/22 02:55:09;;;;;;;2.10;2.00;;;5.50;99.90;;;;;;5074421;28;20581;-92
2023/11/22 02:57:41;;;;;;;2.00;1.40;;;5.40;99.90;;;;;;5074174;28;20239;-94
2023/11/22 03:00:08;;;;;;;1.20;1.20;;;5.30;99.90;;;;;;5074024;28;20221;-89
2023/11/22 03:02:34;;;;;;;3.33;2.00;;;5.50;99.90;;;;;;5073643;28;20217;-92
2023/11/22 03:05:01;;;;;;;2.37;1.73;;;5.30;99.90;;;;;;5056787;28;20681;-92
2023/11/22 03:07:27;;;;;;;1.80;1.70;;;5.30;99.90;;;;;;5057206;28;20185;-91
2023/11/22 03:09:53;;;;;;;2.30;1.70;;;5.40;99.90;;;;;;5074296;28;20223;-91
2023/11/22 03:12:23;;;;;;;1.17;1.07;;;5.30;99.90;;;;;;5075218;28;20699;-92
2023/11/22 03:14:48;;;;;;;2.00;1.47;;;5.30;99.90;;;;;;5087835;28;20236;-88
2023/11/22 03:17:17;;;;;;;1.30;1.20;;;5.40;99.90;;;;;;5094003;28;20241;-87
2023/11/22 03:19:45;;;;;;;0.53;0.53;;;5.30;99.90;;;;;;5093400;28;20182;-88
2023/11/22 03:22:11;;;;;;;1.63;1.53;;;5.30;99.90;;;;;;5076781;28;20185;-92
2023/11/22 03:24:39;;;;;;;1.80;1.70;;;5.40;99.90;;;;;;5073881;28;20213;-93
2023/11/22 03:27:05;;;;;;;1.90;1.03;;;5.30;99.90;;;;;;5056826;28;20296;-92
2023/11/22 03:29:32;;;;;;;2.80;1.17;;;5.30;99.90;;;;;;5074191;28;20217;-92
2023/11/22 03:31:58;;;;;;;5.43;3.43;;;5.20;99.90;;;;;;5073393;28;20213;-93
2023/11/22 03:34:24;;;;;;;1.23;1.13;;;5.20;99.90;;;;;;5074400;28;20547;-92
2023/11/22 03:36:49;;;;;;;2.17;2.07;;;5.30;99.90;;;;;;5090583;28;20312;-89
2023/11/22 03:39:16;;;;;;;2.17;2.07;;;5.30;99.90;;;;;;5077996;28;20217;-88
2023/11/22 03:41:42;;;;;;;2.97;2.77;;;5.20;99.90;;;;;;5095184;28;20213;-90
2023/11/22 03:44:09;;;;;;;1.17;1.10;;;5.20;99.90;;;;;;5080767;28;20240;-93
2023/11/22 03:46:38;;;;;;;2.03;1.93;;;5.10;99.90;;;;;;5074804;28;20566;-91
2023/11/22 03:49:06;;;;;;;1.83;1.83;;;5.10;99.90;;;;;;5076484;28;20609;-93
2023/11/22 03:51:33;;;;;;;1.90;1.80;;;4.90;99.90;;;;;;5075705;28;20217;-91
2023/11/22 03:53:59;;;;;;;5.63;1.03;;;5.00;99.90;;;;;;5073284;28;20734;-94
2023/11/22 03:56:25;;;;;;;1.43;1.43;;;4.80;99.90;;;;;;5073492;28;20229;-89
2023/11/22 03:58:51;;;;;;;0.90;0.90;;;4.90;99.90;;;;;;5072997;28;20221;-90
2023/11/22 04:01:18;;;;;;;3.50;2.00;;;4.90;99.90;;;;;;5057352;28;20235;-91
2023/11/22 04:03:44;;;;;;;2.73;2.53;;;5.00;99.90;;;;;;5073212;28;20217;-90
2023/11/22 04:06:10;;;;;;;1.03;1.00;;;5.10;99.90;;;;;;5073886;28;20619;-90
2023/11/22 04:08:37;;;;;;;1.70;1.60;;;5.00;99.90;;;;;;5072981;28;20245;-94
2023/11/22 04:11:05;;;;;;;0.73;0.73;;;5.00;99.90;;;;;;5073509;28;20217;-92
2023/11/22 04:13:31;;;;;;;2.10;1.90;;;5.20;99.90;;;;;;5072830;28;20177;-92
2023/11/22 04:15:57;;;;;;;2.60;2.50;;;5.00;99.90;;;;;;5075574;28;20185;-93
2023/11/22 04:18:24;;;;;;;1.53;1.43;;;5.10;99.90;;;;;;5072536;28;20438;-93
2023/11/22 04:20:50;;;;;;;0.67;0.60;;;5.20;99.90;;;;;;5071942;28;20219;-91
2023/11/22 04:23:16;;;;;;;1.63;1.53;;;5.20;99.90;;;;;;5072322;28;20325;-93
2023/11/22 04:25:42;;;;;;;1.67;1.57;;;5.10;99.90;;;;;;5072950;28;20625;-93
2023/11/22 04:28:09;;;;;;;2.33;2.23;;;5.20;99.90;;;;;;5078062;28;20276;-93
2023/11/22 04:30:36;;;;;;;4.80;3.43;;;5.20;99.90;;;;;;5076020;28;20286;-93
2023/11/22 04:33:02;;;;;;;1.40;1.37;;;5.40;99.90;;;;;;5056872;28;20215;-92
2023/11/22 04:35:28;;;;;;;2.33;2.13;;;5.30;99.90;;;;;;5074515;28;20567;-93
2023/11/22 04:37:58;;;;;;;2.10;2.00;;;5.40;99.90;;;;;;5073296;28;20346;-91
2023/11/22 04:40:24;;;;;;;1.30;1.03;;;5.30;99.90;;;;;;5074550;28;20213;-93
2023/11/22 04:42:49;;;;;;;2.53;1.70;;;5.30;99.90;;;;;;5057403;28;20221;-91
2023/11/22 04:45:15;;;;;;;2.70;2.57;;;5.30;99.90;;;;;;5074082;28;20240;-90
2023/11/22 04:47:41;;;;;;;2.03;1.90;;;5.30;99.90;;;;;;5080838;28;20220;-91
2023/11/22 04:50:07;;;;;;;2.50;1.97;;;5.10;99.90;;;;;;5076469;28;20217;-94
2023/11/22 04:52:33;;;;;;;2.17;2.07;;;5.00;99.90;;;;;;5073087;28;20181;-93
2023/11/22 04:54:59;;;;;;;6.50;2.47;;;5.20;99.90;;;;;;5074351;28;20210;-90
2023/11/22 04:57:25;;;;;;;1.77;1.50;;;5.10;99.90;;;;;;5072937;28;20267;-91
2023/11/22 04:59:51;;;;;;;0.77;0.77;;;5.00;99.90;;;;;;5073712;28;20217;-92
2023/11/22 05:02:16;;;;;;;2.53;1.33;;;5.00;99.90;;;;;;5072945;28;20281;-90
2023/11/22 05:04:42;;;;;;;2.20;1.67;;;4.90;99.90;;;;;;5072588;28;20182;-92
2023/11/22 05:07:09;;;;;;;1.63;1.63;;;4.90;99.90;;;;;;5075845;28;20188;-92
2023/11/22 05:09:35;;;;;;;1.57;1.33;;;4.90;99.90;;;;;;5076865;28;20213;-92
2023/11/22 05:12:00;;;;;;;1.17;1.07;;;4.90;99.90;;;;;;5077473;28;20229;-91
2023/11/22 05:14:26;;;;;;;4.10;1.90;;;5.00;99.90;;;;;;5076509;28;20243;-90
2023/11/22 05:16:52;;;;;;;2.27;2.07;;;4.90;99.90;;;;;;5076350;28;20233;-91
2023/11/22 05:19:19;;;;;;;3.73;3.23;;;4.90;99.90;;;;;;5076374;28;20274;-89
2023/11/22 05:21:44;;;;;;;1.50;1.37;;;5.00;99.90;;;;;;5076004;28;20241;-92
2023/11/22 05:24:10;;;;;;;1.57;1.17;;;4.90;99.90;;;;;;5075877;28;20228;-90
2023/11/22 05:26:36;;;;;;;1.47;1.47;;;5.00;99.90;;;;;;5058932;28;20213;-92
2023/11/22 05:29:04;;;;;;;1.00;1.00;;;5.00;99.90;;;;;;5077326;28;20227;-93
2023/11/22 05:31:30;;;;;;;3.57;3.33;;;4.90;99.90;;;;;;5077476;28;20590;-93
2023/11/22 05:33:56;;;;;;;0.90;0.90;;;4.90;99.90;;;;;;5078171;28;20173;-90
2023/11/22 05:36:22;;;;;;;5.07;3.27;;;4.80;99.90;;;;;;5077603;28;20217;-94
2023/11/22 05:38:48;;;;;;;1.17;0.97;;;5.00;99.90;;;;;;5076924;28;20343;-92
2023/11/22 05:41:14;;;;;;;2.33;2.17;;;4.90;99.90;;;;;;5078339;28;20217;-92
2023/11/22 05:43:42;;;;;;;2.57;2.37;;;5.00;99.90;;;;;;5076146;28;20181;-91
2023/11/22 05:46:08;;;;;;;0.90;0.83;;;4.80;99.90;;;;;;5077674;28;20181;-92
2023/11/22 05:48:35;;;;;;;2.23;2.13;;;4.90;99.90;;;;;;5075395;28;20213;-90
2023/11/22 05:51:00;;;;;;;1.80;1.53;;;4.90;99.90;;;;;;5075647;28;20240;-94
2023/11/22 05:53:26;;;;;;;1.10;0.60;;;4.90;99.90;;;;;;5060160;28;20634;-94
2023/11/22 05:55:52;;;;;;;1.93;1.83;;;4.90;99.90;;;;;;5057967;28;20233;-90
2023/11/22 05:58:18;;;;;;;2.63;1.90;;;4.90;99.90;;;;;;5075689;28;20304;-92
2023/11/22 06:00:47;;;;;;;1.60;1.47;;;4.80;99.90;;;;;;5074587;28;20240;-91
2023/11/22 06:03:14;;;;;;;3.53;1.87;;;4.80;99.90;;;;;;5074663;28;20244;-91
2023/11/22 06:05:40;;;;;;;1.17;1.17;;;4.80;99.90;;;;;;5058448;28;20239;-94
2023/11/22 06:08:06;;;;;;;1.10;1.03;;;4.90;99.90;;;;;;5075243;28;20247;-90
2023/11/22 06:10:32;;;;;;;1.00;1.00;;;4.90;99.90;;;;;;5074674;28;20177;-91
2023/11/22 06:12:58;;;;;;;1.07;0.97;;;4.90;99.90;;;;;;5074742;28;20274;-92
2023/11/22 06:15:23;;;;;;;1.87;1.40;;;4.90;99.90;;;;;;5075669;28;20671;-92
2023/11/22 06:17:49;;;;;;;2.27;2.07;;;4.90;99.90;;;;;;5073904;28;20231;-91
2023/11/22 06:20:15;;;;;;;2.60;2.40;;;4.90;99.90;;;;;;5057809;28;20664;-91
2023/11/22 06:22:42;;;;;;;3.90;1.93;;;4.90;99.90;;;;;;5074257;28;20181;-93
2023/11/22 06:25:12;;;;;;;2.17;2.07;;;4.80;99.90;;;;;;5058671;28;20189;-92
2023/11/22 06:27:38;;;;;;;1.30;1.30;;;4.70;99.90;;;;;;5057623;28;20217;-94
2023/11/22 06:30:06;;;;;;;1.27;1.27;;;4.90;99.90;;;;;;5074230;28;20695;-93
2023/11/22 06:32:33;;;;;;;2.27;1.60;;;4.80;99.90;;;;;;5058259;28;20213;-93
2023/11/22 06:34:58;;;;;;;1.80;1.70;;;4.70;99.90;;;;;;5074390;28;20213;-93
2023/11/22 06:37:25;;;;;;;1.43;1.43;;;4.80;99.90;;;;;;5075369;28;20278;-92
2023/11/22 06:39:51;;;;;;;1.23;1.07;;;4.80;99.90;;;;;;5075133;28;20239;-91
2023/11/22 06:42:19;;;;;;;0.97;0.97;;;4.80;99.90;;;;;;5074352;28;20682;-93
2023/11/22 06:44:47;;;;;;;0.60;0.60;;;4.70;99.90;;;;;;5073875;28;20213;-91
2023/11/22 06:47:14;;;;;;;0.47;0.47;;;4.80;99.90;;;;;;5057169;28;20221;-93
2023/11/22 06:49:40;;;;;;;6.50;1.23;;;4.60;99.90;;;;;;5074011;28;20178;-91
2023/11/22 06:52:06;;;;;;;1.90;1.30;;;4.70;99.90;;;;;;5076617;28;20266;-92
2023/11/22 06:54:31;;;;;;;0.90;0.90;;;4.70;99.90;;;;;;5073877;28;20216;-91
2023/11/22 06:56:57;;;;;;;3.17;2.93;;;4.70;99.90;;;;;;5056376;28;20697;-92
2023/11/22 06:59:23;;;;;;;2.97;1.10;;;4.60;99.90;;;;;;5074227;28;20593;-90
2023/11/22 07:01:51;;;;;;;3.30;2.13;;;4.70;99.90;;;;;;5057902;28;20215;-90
2023/11/22 07:04:17;;;;;;;4.17;2.73;;;4.60;99.90;;;;;;5076074;28;20181;-94
2023/11/22 07:06:44;;;;;;;1.77;1.67;;;4.60;99.90;;;;;;5073259;28;20213;-91
2023/11/22 07:09:10;;;;;;;2.07;1.10;;;4.70;99.90;;;;;;5075109;28;20213;-87
2023/11/22 07:11:36;;;;;;;2.30;1.97;;;4.60;99.90;;;;;;5075953;28;20282;-91
2023/11/22 07:14:05;;;;;;;1.80;1.70;;;4.60;99.90;;;;;;5065276;28;20244;-90
2023/11/22 07:16:34;;;;;;;0.90;0.87;;;4.70;99.90;;;;;;5067719;28;20191;-93
2023/11/22 07:19:02;;;;;;;2.67;2.53;;;4.70;99.90;;;;;;5081995;28;20177;-91
2023/11/22 07:21:31;;;;;;;1.93;1.43;;;4.60;99.90;;;;;;5079819;28;20225;-91
2023/11/22 07:23:59;;;;;;;3.37;2.23;;;4.70;99.90;;;;;;5074665;28;20221;-89
2023/11/22 07:26:26;;;;;;;2.07;1.90;;;4.80;99.90;;;;;;5065326;28;20213;-89
2023/11/22 07:28:53;;;;;;;1.37;1.37;;;4.60;99.90;;;;;;5078839;28;20260;-93
2023/11/22 07:31:19;;;;;;;2.03;1.87;;;4.80;99.90;;;;;;5060032;28;20182;-91
2023/11/22 07:33:46;;;;;;;2.50;2.30;;;4.70;99.90;;;;;;5064732;28;20225;-92
2023/11/22 07:36:15;;;;;;;12.77;2.67;;;4.80;99.90;;;;;;5076409;28;20225;-91
2023/11/22 07:38:42;;;;;;;3.00;2.80;;;4.80;99.90;;;;;;5075954;28;20316;-92
2023/11/22 07:41:08;;;;;;;5.37;2.67;;;4.90;99.90;;;;;;5080647;28;20354;-90
2023/11/22 07:43:36;;;;;;;2.77;2.53;;;5.10;99.90;;;;;;5086214;28;20158;-89
2023/11/22 07:46:12;;;;;;;2.70;2.47;;;5.20;99.90;;;;;;5094588;28;20186;-90
2023/11/22 07:48:42;;;;;;;4.23;3.53;;;5.30;99.90;;;;;;5090187;28;20260;-92
2023/11/22 07:51:08;;;;;;;1.27;1.17;;;5.40;99.90;;;;;;5079988;28;20279;-89
2023/11/22 07:53:35;;;;;;;1.90;1.80;;;5.30;99.90;;;;;;5072963;28;20615;-93
2023/11/22 07:56:04;;;;;;;1.80;1.73;;;5.30;99.90;;;;;;5075229;28;20282;-90
2023/11/22 07:58:46;;;;;;;2.13;1.80;;;5.30;99.90;;;;;;5077733;27;20519;-92
2023/11/22 08:01:13;;;;;;;7.43;1.67;;;5.30;99.90;;;;;;5049856;28;20197;-92
2023/11/22 08:03:45;;;;;;;5.67;2.47;;;5.40;99.90;;;;;;5009136;28;20218;-91
2023/11/22 08:06:11;;;;;;;3.20;3.00;;;5.30;99.90;;;;;;5021636;28;20497;-89
2023/11/22 08:08:39;;;;;;;2.67;2.43;;;5.30;99.90;;;;;;5016099;28;20210;-86
2023/11/22 08:11:14;;;;;;;1.43;1.30;;;5.40;99.90;;;;;;5013788;28;20224;-87
2023/11/22 08:13:42;;;;;;;5.60;3.30;;;5.30;99.90;;;;;;5020506;28;20182;-87
2023/11/22 08:16:09;;;;;;;1.07;0.87;;;5.30;99.90;;;;;;5048799;28;20240;-86
2023/11/22 08:18:34;;;;;;;3.17;1.83;;;5.30;99.90;;;;;;5016814;28;20242;-86
2023/11/22 08:21:00;;;;;;;3.63;2.53;;;5.30;99.90;;;;;;5041796;28;20220;-85
2023/11/22 08:23:31;;;;;;;1.07;1.07;;;5.30;99.90;;;;;;5055392;28;20213;-86
2023/11/22 08:26:02;;;;;;;3.37;3.07;;;5.20;99.90;;;;;;5011529;28;20244;-85
2023/11/22 08:28:29;;;;;;;2.50;2.27;;;5.30;99.90;;;;;;5007495;28;20182;-88
2023/11/22 08:30:55;;;;;;;1.37;1.37;;;5.30;99.90;;;;;;5034084;28;20191;-87
2023/11/22 08:33:24;;;;;;;6.87;2.50;;;5.30;99.90;;;;;;5006608;28;20278;-86
2023/11/22 08:35:52;;;;;;;1.27;1.23;;;5.40;99.90;;;;;;5015316;28;20685;-88
2023/11/22 08:38:19;;;;;;;2.10;2.00;;;5.40;99.90;;;;;;5029447;28;20690;-85
2023/11/22 08:40:45;;;;;;;4.80;4.37;;;5.40;99.90;;;;;;5007238;28;20182;-87
2023/11/22 08:43:10;;;;;;;3.47;2.53;;;5.50;99.90;;;;;;5032771;28;20194;-87
2023/11/22 08:45:36;;;;;;;1.80;1.70;;;5.40;99.90;;;;;;5017173;28;20229;-84
2023/11/22 08:48:03;;;;;;;2.67;1.53;;;5.50;99.90;;;;;;5019204;28;20293;-87
2023/11/22 08:50:29;;;;;;;3.43;3.13;;;5.60;99.90;;;;;;5009190;28;20238;-86
2023/11/22 08:52:54;;;;;;;2.97;1.87;;;5.60;99.90;;;;;;5008508;28;20214;-87
2023/11/22 08:55:29;;;;;;;4.60;4.20;;;5.60;99.90;;;;;;5033169;28;20194;-85
2023/11/22 08:57:55;;;;;;;3.07;2.53;;;5.50;99.90;;;;;;5031208;28;20265;-86
2023/11/22 09:00:25;;;;;;;7.00;2.70;;;5.60;99.90;;;;;;4971725;28;20918;-85
2023/11/22 09:02:51;;;;;;;8.73;5.90;;;5.70;99.90;;;;;;4988823;28;20258;-85
2023/11/22 09:05:19;;;;;;;3.23;2.67;;;5.60;99.90;;;;;;4986604;28;20322;-82
2023/11/22 09:07:44;;;;;;;2.47;2.33;;;5.70;99.90;;;;;;4998623;28;20666;-84
2023/11/22 09:10:12;;;;;;;2.90;2.80;;;5.80;99.90;;;;;;4969931;28;20180;-85
2023/11/22 09:12:40;;;;;;;3.23;1.70;;;5.80;99.90;;;;;;4969890;28;20587;-84
2023/11/22 09:15:12;;;;;;;2.13;2.03;;;5.80;99.90;;;;;;4988732;28;20223;-84
2023/11/22 09:17:47;;;;;;;3.67;1.93;;;5.80;99.90;;;;;;4972920;28;20238;-84
2023/11/22 09:20:14;;;;;;;2.80;2.13;;;5.80;99.90;;;;;;4990368;28;20314;-84
2023/11/22 09:22:48;;;;;;;2.07;1.43;;;5.80;99.90;;;;;;5002978;28;20188;-85
2023/11/22 09:25:21;;;;;;;7.93;2.57;;;5.80;99.90;;;;;;4997025;28;20340;-83
2023/11/22 09:27:51;;;;;;;5.00;2.90;;;5.90;99.90;;;;;;4987022;28;20223;-84
2023/11/22 09:30:42;;;;;;;2.33;2.13;;;6.00;99.90;;;;;;5002248;28;20247;-85
2023/11/22 09:33:16;;;;;;;2.53;2.33;;;6.00;99.90;;;;;;5003951;28;20246;-84
2023/11/22 09:35:45;;;;;;;1.73;1.63;;;5.90;99.90;;;;;;4988636;28;20226;-85
2023/11/22 09:38:11;;;;;;;2.57;2.47;;;5.90;99.90;;;;;;5005735;28;20228;-82
2023/11/22 09:40:50;;;;;;;4.60;2.87;;;6.00;99.90;;;;;;4988951;28;20187;-84
2023/11/22 09:43:18;;;;;;;2.10;1.70;;;6.00;99.90;;;;;;4973944;28;20187;-85
2023/11/22 09:45:44;;;;;;;5.50;3.20;;;6.10;99.90;;;;;;5005224;28;20219;-83
2023/11/22 09:48:23;;;;;;;3.37;3.00;;;6.10;99.90;;;;;;4989560;28;20238;-85
2023/11/22 09:51:21;;;;;;;2.27;2.17;;;6.20;99.90;;;;;;4989039;28;20227;-84
2023/11/22 09:54:00;;;;;;;0.97;0.93;;;6.20;99.90;;;;;;5004398;28;20353;-84
2023/11/22 09:56:27;;;;;;;3.37;2.03;;;6.30;99.90;;;;;;5004306;28;20318;-83
2023/11/22 09:58:55;;;;;;;2.07;1.67;;;6.40;99.90;;;;;;5039529;28;20967;-84
2023/11/22 10:01:22;;;;;;;3.67;2.67;;;6.50;99.90;;;;;;5025252;28;20216;-82
2023/11/22 10:03:49;;;;;;;5.37;3.13;;;6.50;99.90;;;;;;5024069;28;20800;-83
2023/11/22 10:06:15;;;;;;;1.40;1.40;;;6.50;99.90;;;;;;5005770;28;20214;-83
2023/11/22 10:08:41;;;;;;;3.07;1.83;;;6.60;99.90;;;;;;5023759;28;20214;-86
2023/11/22 10:11:07;;;;;;;1.10;1.00;;;6.70;99.90;;;;;;5007735;28;20226;-87
2023/11/22 10:13:34;;;;;;;2.63;2.43;;;6.70;99.90;;;;;;5025324;28;20991;-86
2023/11/22 10:16:15;;;;;;;2.67;2.47;;;6.70;99.90;;;;;;5002259;28;21067;-87
2023/11/22 10:18:48;;;;;;;8.53;4.70;;;6.80;99.90;;;;;;5002897;28;20522;-88
2023/11/22 10:21:32;;;;;;;5.87;2.60;;;6.90;99.90;;;;;;5014610;28;20289;-87
2023/11/22 10:24:02;;;;;;;3.03;2.73;;;7.00;99.90;;;;;;5018803;28;20601;-85
2023/11/22 10:26:28;;;;;;;6.60;4.67;;;7.00;99.90;;;;;;5022191;28;20218;-87
2023/11/22 10:28:55;;;;;;;3.27;2.40;;;7.10;99.90;;;;;;5005324;28;20219;-87
2023/11/22 10:31:22;;;;;;;3.77;3.43;;;7.20;99.90;;;;;;5025013;28;20179;-88
2023/11/22 10:33:48;;;;;;;3.53;3.23;;;7.20;99.90;;;;;;5017567;28;20238;-86
2023/11/22 10:36:15;;;;;;;2.60;1.50;;;7.30;99.90;;;;;;5024971;28;20217;-89
2023/11/22 10:38:46;;;;;;;3.30;2.67;;;7.30;99.90;;;;;;5041823;28;20223;-86
2023/11/22 10:41:13;;;;;;;4.77;2.33;;;7.20;99.90;;;;;;5024322;28;20290;-86
2023/11/22 10:43:41;;;;;;;3.10;2.57;;;7.20;99.90;;;;;;5018530;28;20198;-87
2023/11/22 10:46:10;;;;;;;3.80;3.07;;;7.20;99.90;;;;;;5026262;28;20195;-86
2023/11/22 10:48:39;;;;;;;2.57;2.37;;;7.30;99.90;;;;;;5005190;28;20222;-90
2023/11/22 10:51:05;;;;;;;4.70;2.90;;;7.30;99.90;;;;;;5031171;28;20220;-86
2023/11/22 10:53:38;;;;;;;4.53;2.77;;;7.30;99.90;;;;;;5013600;28;20211;-89
2023/11/22 10:56:19;;;;;;;2.90;1.33;;;7.40;99.90;;;;;;5008214;28;20218;-87
2023/11/22 10:58:55;;;;;;;4.07;2.80;;;7.40;99.90;;;;;;5022448;28;20234;-90
2023/11/22 11:01:25;;;;;;;3.03;2.33;;;7.40;99.90;;;;;;5025054;28;20635;-88
2023/11/22 11:04:11;;;;;;;2.03;1.93;;;7.40;99.90;;;;;;5025342;28;20222;-90
2023/11/22 11:06:37;;;;;;;3.73;2.60;;;7.50;99.90;;;;;;5040312;28;20230;-88
2023/11/22 11:09:05;;;;;;;2.50;2.17;;;7.70;99.90;;;;;;5022124;28;20226;-86
2023/11/22 11:11:34;;;;;;;5.10;2.40;;;7.60;99.90;;;;;;5039839;28;20267;-88
2023/11/22 11:14:01;;;;;;;2.03;1.93;;;7.50;99.90;;;;;;5024148;28;20223;-89
2023/11/22 11:16:28;;;;;;;4.17;2.70;;;7.50;99.90;;;;;;5046638;28;20760;-89
2023/11/22 11:18:54;;;;;;;3.97;3.67;;;7.50;99.90;;;;;;5023451;28;20190;-86
2023/11/22 11:21:21;;;;;;;4.27;3.07;;;7.60;99.90;;;;;;4999904;28;20218;-87
2023/11/22 11:23:47;;;;;;;3.40;3.10;;;7.60;99.90;;;;;;5038408;28;20218;-88
2023/11/22 11:26:22;;;;;;;2.53;1.67;;;7.70;99.90;;;;;;5001215;28;20256;-88
2023/11/22 11:28:51;;;;;;;5.27;3.03;;;7.80;99.90;;;;;;5022249;28;20233;-84
2023/11/22 11:31:23;;;;;;;2.13;1.87;;;7.80;99.90;;;;;;5022808;28;20181;-86
2023/11/22 11:33:48;;;;;;;3.00;2.57;;;7.70;99.90;;;;;;5024346;28;20752;-87
2023/11/22 11:36:26;;;;;;;3.50;2.57;;;7.80;99.90;;;;;;5023848;28;20395;-88
2023/11/22 11:38:54;;;;;;;2.60;2.50;;;7.80;99.90;;;;;;5038802;28;20365;-86
2023/11/22 11:41:28;;;;;;;3.43;3.23;;;7.90;99.90;;;;;;5006180;28;20241;-87
2023/11/22 11:43:56;;;;;;;3.57;2.37;;;7.90;99.90;;;;;;5021661;28;20217;-86
2023/11/22 11:46:26;;;;;;;2.60;2.40;;;8.00;99.90;;;;;;5023248;28;20525;-87
2023/11/22 11:48:53;;;;;;;4.70;4.30;;;7.90;99.90;;;;;;4990520;28;20214;-86
2023/11/22 11:51:22;;;;;;;2.40;2.20;;;7.90;99.90;;;;;;5019215;28;20222;-84
2023/11/22 11:53:48;;;;;;;2.67;2.53;;;7.90;99.90;;;;;;5021175;28;20215;-83
2023/11/22 11:56:15;;;;;;;2.57;2.37;;;7.80;99.90;;;;;;5013830;28;20211;-84
2023/11/22 11:58:46;;;;;;;1.67;1.27;;;7.80;99.90;;;;;;5019637;28;20365;-83
2023/11/22 12:01:21;;;;;;;2.93;2.40;;;7.80;99.90;;;;;;5006585;28;20229;-85
2023/11/22 12:03:47;;;;;;;4.93;2.03;;;7.80;99.90;;;;;;5023957;28;20214;-85
2023/11/22 12:06:17;;;;;;;2.03;1.93;;;7.70;99.90;;;;;;5014962;28;20222;-85
2023/11/22 12:08:44;;;;;;;2.93;2.37;;;7.60;99.90;;;;;;5021651;28;20277;-85
2023/11/22 12:11:10;;;;;;;1.83;1.70;;;7.70;99.90;;;;;;5036074;28;20214;-84
2023/11/22 12:13:38;;;;;;;2.33;2.13;;;7.70;99.90;;;;;;5014721;28;20281;-85
2023/11/22 12:16:07;;;;;;;2.40;1.97;;;7.70;99.90;;;;;;5005613;28;20965;-84
2023/11/22 12:18:47;;;;;;;4.77;2.17;;;7.70;99.90;;;;;;5022454;28;20226;-84
2023/11/22 12:21:13;;;;;;;3.10;2.03;;;7.60;99.90;;;;;;5022063;28;20210;-85
2023/11/22 12:23:41;;;;;;;2.33;1.93;;;7.60;99.90;;;;;;5003770;28;20223;-85
2023/11/22 12:26:14;;;;;;;2.87;1.67;;;7.60;99.90;;;;;;5020653;28;20318;-86
2023/11/22 12:28:43;;;;;;;5.00;2.20;;;7.60;99.90;;;;;;5018074;28;20234;-83
2023/11/22 12:31:10;;;;;;;2.90;2.80;;;7.60;99.90;;;;;;5003859;28;20318;-86
2023/11/22 12:33:36;;;;;;;2.97;1.50;;;7.50;99.90;;;;;;5021031;28;20222;-84
2023/11/22 12:36:09;;;;;;;2.80;2.10;;;7.50;99.90;;;;;;5014605;28;20214;-84
2023/11/22 12:38:38;;;;;;;2.17;2.00;;;7.60;99.90;;;;;;5020726;28;20257;-85
2023/11/22 12:41:06;;;;;;;3.93;1.93;;;7.60;99.90;;;;;;5022829;28;20264;-86
2023/11/22 12:43:33;;;;;;;2.30;1.87;;;7.50;99.90;;;;;;5022014;28;20191;-86
2023/11/22 12:46:02;;;;;;;3.63;1.87;;;7.50;99.90;;;;;;5026515;28;21183;-87
2023/11/22 12:48:32;;;;;;;3.33;2.50;;;7.40;99.90;;;;;;5019601;28;20268;-87
2023/11/22 12:50:59;;;;;;;3.40;2.90;;;7.40;99.90;;;;;;5026112;28;20610;-86
2023/11/22 12:53:28;;;;;;;4.70;4.40;;;7.50;99.90;;;;;;5027184;28;20868;-86
2023/11/22 12:55:55;;;;;;;1.60;1.50;;;7.50;99.90;;;;;;5026330;28;20237;-87
2023/11/22 12:58:27;;;;;;;3.37;1.37;;;7.40;99.90;;;;;;5026521;28;20234;-86
2023/11/22 13:00:57;;;;;;;0.90;0.90;;;7.40;99.90;;;;;;4976243;28;20221;-87